sensor_id;sensor_type;location;lat;lon;timestamp;temperature;humidity
62339;DHT22;48368;53.406;6.214;2023-01-28T00:00:08;2.90;99.90
62339;DHT22;48368;53.406;6.214;2023-01-28T00:02:34;2.90;99.90
62339;DHT22;48368;53.406;6.214;2023-01-28T00:05:00;2.90;99.90
62339;DHT22;48368;53.406;6.214;2023-01-28T00:07:26;2.90;99.90
62339;DHT22;48368;53.406;6.214;2023-01-28T00:09:52;2.90;99.90
62339;DHT22;48368;53.406;6.214;2023-01-28T00:12:17;2.80;99.90
62339;DHT22;48368;53.406;6.214;2023-01-28T00:14:43;2.90;99.90
62339;DHT22;48368;53.406;6.214;2023-01-28T00:17:10;2.90;99.90
62339;DHT22;48368;53.406;6.214;2023-01-28T00:19:36;2.90;99.90
62339;DHT22;48368;53.406;6.214;2023-01-28T00:22:02;2.90;99.90
62339;DHT22;48368;53.406;6.214;2023-01-28T00:24:29;2.90;99.90
62339;DHT22;48368;53.406;6.214;2023-01-28T00:26:54;2.80;99.90
62339;DHT22;48368;53.406;6.214;2023-01-28T00:29:20;2.80;99.90
62339;DHT22;48368;53.406;6.214;2023-01-28T00:31:48;2.80;99.90
62339;DHT22;48368;53.406;6.214;2023-01-28T00:34:14;2.80;99.90
62339;DHT22;48368;53.406;6.214;2023-01-28T00:36:40;2.80;99.90
62339;DHT22;48368;53.406;6.214;2023-01-28T00:39:10;2.80;99.90
62339;DHT22;48368;53.406;6.214;2023-01-28T00:41:38;2.80;99.90
62339;DHT22;48368;53.406;6.214;2023-01-28T00:44:03;2.80;99.90
62339;DHT22;48368;53.406;6.214;2023-01-28T00:46:29;2.80;99.90
62339;DHT22;48368;53.406;6.214;2023-01-28T00:48:55;2.80;99.90
62339;DHT22;48368;53.406;6.214;2023-01-28T00:51:27;2.80;99.90
62339;DHT22;48368;53.406;6.214;2023-01-28T00:53:52;2.90;99.90
62339;DHT22;48368;53.406;6.214;2023-01-28T00:56:18;2.80;99.90
62339;DHT22;48368;53.406;6.214;2023-01-28T00:58:44;2.90;99.90
62339;DHT22;48368;53.406;6.214;2023-01-28T01:01:21;2.80;99.90
62339;DHT22;48368;53.406;6.214;2023-01-28T01:03:47;2.80;99.90
62339;DHT22;48368;53.406;6.214;2023-01-28T01:06:18;2.80;99.90
62339;DHT22;48368;53.406;6.214;2023-01-28T01:08:50;2.80;99.90
62339;DHT22;48368;53.406;6.214;2023-01-28T01:11:16;2.80;99.90
62339;DHT22;48368;53.406;6.214;2023-01-28T01:13:42;2.70;99.90
62339;DHT22;48368;53.406;6.214;2023-01-28T01:16:13;2.80;99.90
62339;DHT22;48368;53.406;6.214;2023-01-28T01:18:54;2.80;99.90
62339;DHT22;48368;53.406;6.214;2023-01-28T01:21:22;2.80;99.90
62339;DHT22;48368;53.406;6.214;2023-01-28T01:23:48;2.80;99.90
62339;DHT22;48368;53.406;6.214;2023-01-28T01:26:14;2.70;99.90
62339;DHT22;48368;53.406;6.214;2023-01-28T01:28:40;2.80;99.90
62339;DHT22;48368;53.406;6.214;2023-01-28T01:31:14;2.80;99.90
62339;DHT22;48368;53.406;6.214;2023-01-28T01:33:41;2.80;99.90
62339;DHT22;48368;53.406;6.214;2023-01-28T01:36:08;2.70;99.90
62339;DHT22;48368;53.406;6.214;2023-01-28T01:38:33;2.80;99.90
62339;DHT22;48368;53.406;6.214;2023-01-28T01:41:02;2.70;99.90
62339;DHT22;48368;53.406;6.214;2023-01-28T01:43:56;2.70;99.90
62339;DHT22;48368;53.406;6.214;2023-01-28T01:49:11;2.70;99.90
62339;DHT22;48368;53.406;6.214;2023-01-28T01:51:39;2.70;99.90
62339;DHT22;48368;53.406;6.214;2023-01-28T01:54:05;2.70;99.90
62339;DHT22;48368;53.406;6.214;2023-01-28T01:56:36;2.70;99.90
62339;DHT22;48368;53.406;6.214;2023-01-28T01:59:03;2.70;99.90
62339;DHT22;48368;53.406;6.214;2023-01-28T02:01:30;2.70;99.90
62339;DHT22;48368;53.406;6.214;2023-01-28T02:06:30;2.70;99.90
62339;DHT22;48368;53.406;6.214;2023-01-28T02:08:56;2.70;99.90
62339;DHT22;48368;53.406;6.214;2023-01-28T02:11:25;2.60;99.90
62339;DHT22;48368;53.406;6.214;2023-01-28T02:13:53;2.70;99.90
62339;DHT22;48368;53.406;6.214;2023-01-28T02:16:21;2.70;99.90
62339;DHT22;48368;53.406;6.214;2023-01-28T02:18:51;2.60;99.90
62339;DHT22;48368;53.406;6.214;2023-01-28T02:30:10;2.60;99.90
62339;DHT22;48368;53.406;6.214;2023-01-28T02:32:56;2.60;99.90
62339;DHT22;48368;53.406;6.214;2023-01-28T02:35:38;2.60;99.90
62339;DHT22;48368;53.406;6.214;2023-01-28T02:38:27;2.60;99.90
62339;DHT22;48368;53.406;6.214;2023-01-28T02:41:04;2.60;99.90
62339;DHT22;48368;53.406;6.214;2023-01-28T02:43:43;2.60;99.90
62339;DHT22;48368;53.406;6.214;2023-01-28T02:52:26;2.60;99.90
62339;DHT22;48368;53.406;6.214;2023-01-28T03:01:14;2.50;99.90
62339;DHT22;48368;53.406;6.214;2023-01-28T03:04:02;2.50;99.90
62339;DHT22;48368;53.406;6.214;2023-01-28T03:06:40;2.50;99.90
62339;DHT22;48368;53.406;6.214;2023-01-28T03:09:09;2.50;99.90
62339;DHT22;48368;53.406;6.214;2023-01-28T03:14:39;2.50;99.90
62339;DHT22;48368;53.406;6.214;2023-01-28T03:17:47;2.50;99.90
62339;DHT22;48368;53.406;6.214;2023-01-28T03:24:19;2.50;99.90
62339;DHT22;48368;53.406;6.214;2023-01-28T03:30:11;2.50;99.90
62339;DHT22;48368;53.406;6.214;2023-01-28T03:32:57;2.50;99.90
62339;DHT22;48368;53.406;6.214;2023-01-28T03:35:42;2.40;99.90
62339;DHT22;48368;53.406;6.214;2023-01-28T03:38:27;2.50;99.90
62339;DHT22;48368;53.406;6.214;2023-01-28T03:41:01;2.50;99.90
62339;DHT22;48368;53.406;6.214;2023-01-28T03:43:30;2.50;99.90
62339;DHT22;48368;53.406;6.214;2023-01-28T03:45:56;2.50;99.90
62339;DHT22;48368;53.406;6.214;2023-01-28T03:48:24;2.50;99.90
62339;DHT22;48368;53.406;6.214;2023-01-28T03:50:50;2.40;99.90
62339;DHT22;48368;53.406;6.214;2023-01-28T03:53:17;2.40;99.90
62339;DHT22;48368;53.406;6.214;2023-01-28T03:55:47;2.50;99.90
62339;DHT22;48368;53.406;6.214;2023-01-28T03:58:14;2.40;99.90
62339;DHT22;48368;53.406;6.214;2023-01-28T04:00:39;2.40;99.90
62339;DHT22;48368;53.406;6.214;2023-01-28T04:03:09;2.50;99.90
62339;DHT22;48368;53.406;6.214;2023-01-28T04:05:45;2.50;99.90
62339;DHT22;48368;53.406;6.214;2023-01-28T04:08:11;2.40;99.90
62339;DHT22;48368;53.406;6.214;2023-01-28T04:10:40;2.40;99.90
62339;DHT22;48368;53.406;6.214;2023-01-28T04:13:06;2.40;99.90
62339;DHT22;48368;53.406;6.214;2023-01-28T04:15:31;2.50;99.90
62339;DHT22;48368;53.406;6.214;2023-01-28T04:17:57;2.40;99.90
62339;DHT22;48368;53.406;6.214;2023-01-28T04:20:23;2.50;99.90
62339;DHT22;48368;53.406;6.214;2023-01-28T04:22:49;2.40;99.90
62339;DHT22;48368;53.406;6.214;2023-01-28T04:25:14;2.40;99.90
62339;DHT22;48368;53.406;6.214;2023-01-28T04:27:40;2.40;99.90
62339;DHT22;48368;53.406;6.214;2023-01-28T04:30:06;2.40;99.90
62339;DHT22;48368;53.406;6.214;2023-01-28T04:32:32;2.40;99.90
62339;DHT22;48368;53.406;6.214;2023-01-28T04:34:58;2.40;99.90
62339;DHT22;48368;53.406;6.214;2023-01-28T04:37:23;2.40;99.90
62339;DHT22;48368;53.406;6.214;2023-01-28T04:39:49;2.40;99.90
62339;DHT22;48368;53.406;6.214;2023-01-28T04:42:14;2.40;99.90
62339;DHT22;48368;53.406;6.214;2023-01-28T04:44:40;2.40;99.90
62339;DHT22;48368;53.406;6.214;2023-01-28T04:47:06;2.30;99.90
62339;DHT22;48368;53.406;6.214;2023-01-28T04:49:31;2.40;99.90
62339;DHT22;48368;53.406;6.214;2023-01-28T04:51:57;2.40;99.90
62339;DHT22;48368;53.406;6.214;2023-01-28T04:54:23;2.40;99.90
62339;DHT22;48368;53.406;6.214;2023-01-28T04:56:48;2.30;99.90
62339;DHT22;48368;53.406;6.214;2023-01-28T04:59:14;2.30;99.90
62339;DHT22;48368;53.406;6.214;2023-01-28T05:01:40;2.30;99.90
62339;DHT22;48368;53.406;6.214;2023-01-28T05:04:05;2.30;99.90
62339;DHT22;48368;53.406;6.214;2023-01-28T05:06:31;2.30;99.90
62339;DHT22;48368;53.406;6.214;2023-01-28T05:08:57;2.30;99.90
62339;DHT22;48368;53.406;6.214;2023-01-28T05:11:23;2.30;99.90
62339;DHT22;48368;53.406;6.214;2023-01-28T05:13:49;2.20;99.90
62339;DHT22;48368;53.406;6.214;2023-01-28T05:16:15;2.30;99.90
62339;DHT22;48368;53.406;6.214;2023-01-28T05:18:41;2.30;99.90
62339;DHT22;48368;53.406;6.214;2023-01-28T05:21:07;2.30;99.90
62339;DHT22;48368;53.406;6.214;2023-01-28T05:23:32;2.30;99.90
62339;DHT22;48368;53.406;6.214;2023-01-28T05:25:58;2.30;99.90
62339;DHT22;48368;53.406;6.214;2023-01-28T05:28:27;2.30;99.90
62339;DHT22;48368;53.406;6.214;2023-01-28T05:30:53;2.30;99.90
62339;DHT22;48368;53.406;6.214;2023-01-28T05:33:19;2.30;99.90
62339;DHT22;48368;53.406;6.214;2023-01-28T05:35:44;2.20;99.90
62339;DHT22;48368;53.406;6.214;2023-01-28T05:38:10;2.20;99.90
62339;DHT22;48368;53.406;6.214;2023-01-28T05:40:36;2.30;99.90
62339;DHT22;48368;53.406;6.214;2023-01-28T05:43:01;2.30;99.90
62339;DHT22;48368;53.406;6.214;2023-01-28T05:45:27;2.30;99.90
62339;DHT22;48368;53.406;6.214;2023-01-28T05:47:52;2.20;99.90
62339;DHT22;48368;53.406;6.214;2023-01-28T05:50:18;2.30;99.90
62339;DHT22;48368;53.406;6.214;2023-01-28T05:52:44;2.30;99.90
62339;DHT22;48368;53.406;6.214;2023-01-28T05:55:12;2.30;99.90
62339;DHT22;48368;53.406;6.214;2023-01-28T05:57:38;2.30;99.90
62339;DHT22;48368;53.406;6.214;2023-01-28T06:00:04;2.20;99.90
62339;DHT22;48368;53.406;6.214;2023-01-28T06:02:30;2.30;99.90
62339;DHT22;48368;53.406;6.214;2023-01-28T06:04:55;2.30;99.90
62339;DHT22;48368;53.406;6.214;2023-01-28T06:07:21;2.30;99.90
62339;DHT22;48368;53.406;6.214;2023-01-28T06:09:48;2.30;99.90
62339;DHT22;48368;53.406;6.214;2023-01-28T06:12:14;2.30;99.90
62339;DHT22;48368;53.406;6.214;2023-01-28T06:14:40;2.20;99.90
62339;DHT22;48368;53.406;6.214;2023-01-28T06:17:07;2.20;99.90
62339;DHT22;48368;53.406;6.214;2023-01-28T06:19:32;2.20;99.90
62339;DHT22;48368;53.406;6.214;2023-01-28T06:21:58;2.20;99.90
62339;DHT22;48368;53.406;6.214;2023-01-28T06:24:24;2.10;99.90
62339;DHT22;48368;53.406;6.214;2023-01-28T06:26:52;2.00;99.90
62339;DHT22;48368;53.406;6.214;2023-01-28T06:29:18;2.10;99.90
62339;DHT22;48368;53.406;6.214;2023-01-28T06:31:44;2.00;99.90
62339;DHT22;48368;53.406;6.214;2023-01-28T06:34:10;1.90;99.90
62339;DHT22;48368;53.406;6.214;2023-01-28T06:36:36;2.00;99.90
62339;DHT22;48368;53.406;6.214;2023-01-28T06:39:04;2.00;99.90
62339;DHT22;48368;53.406;6.214;2023-01-28T06:41:30;1.90;99.90
62339;DHT22;48368;53.406;6.214;2023-01-28T06:43:55;1.80;99.90
62339;DHT22;48368;53.406;6.214;2023-01-28T06:46:21;1.80;99.90
62339;DHT22;48368;53.406;6.214;2023-01-28T06:48:47;1.80;99.90
62339;DHT22;48368;53.406;6.214;2023-01-28T06:51:12;1.70;99.90
62339;DHT22;48368;53.406;6.214;2023-01-28T06:53:44;1.70;99.90
62339;DHT22;48368;53.406;6.214;2023-01-28T06:56:10;1.70;99.90
62339;DHT22;48368;53.406;6.214;2023-01-28T06:58:35;1.70;99.90
62339;DHT22;48368;53.406;6.214;2023-01-28T07:01:01;1.60;99.90
62339;DHT22;48368;53.406;6.214;2023-01-28T07:03:28;1.50;99.90
62339;DHT22;48368;53.406;6.214;2023-01-28T07:05:54;1.60;99.90
62339;DHT22;48368;53.406;6.214;2023-01-28T07:08:19;1.50;99.90
62339;DHT22;48368;53.406;6.214;2023-01-28T07:10:45;1.50;99.90
62339;DHT22;48368;53.406;6.214;2023-01-28T07:13:13;1.40;99.90
62339;DHT22;48368;53.406;6.214;2023-01-28T07:15:39;1.30;99.90
62339;DHT22;48368;53.406;6.214;2023-01-28T07:18:05;1.30;99.90
62339;DHT22;48368;53.406;6.214;2023-01-28T07:20:30;1.30;99.90
62339;DHT22;48368;53.406;6.214;2023-01-28T07:22:56;1.30;99.90
62339;DHT22;48368;53.406;6.214;2023-01-28T07:25:22;1.20;99.90
62339;DHT22;48368;53.406;6.214;2023-01-28T07:27:49;1.30;99.90
62339;DHT22;48368;53.406;6.214;2023-01-28T07:30:16;1.20;99.90
62339;DHT22;48368;53.406;6.214;2023-01-28T07:32:42;1.30;99.90
62339;DHT22;48368;53.406;6.214;2023-01-28T07:35:07;1.40;99.90
62339;DHT22;48368;53.406;6.214;2023-01-28T07:37:33;1.30;99.90
62339;DHT22;48368;53.406;6.214;2023-01-28T07:39:59;1.30;99.90
62339;DHT22;48368;53.406;6.214;2023-01-28T07:42:24;1.40;99.90
62339;DHT22;48368;53.406;6.214;2023-01-28T07:44:50;1.30;99.90
62339;DHT22;48368;53.406;6.214;2023-01-28T07:47:15;1.30;99.90
62339;DHT22;48368;53.406;6.214;2023-01-28T07:49:41;1.30;99.90
62339;DHT22;48368;53.406;6.214;2023-01-28T07:52:07;1.30;99.90
62339;DHT22;48368;53.406;6.214;2023-01-28T07:54:33;1.30;99.90
62339;DHT22;48368;53.406;6.214;2023-01-28T07:56:59;1.30;99.90
62339;DHT22;48368;53.406;6.214;2023-01-28T07:59:25;1.30;99.90
62339;DHT22;48368;53.406;6.214;2023-01-28T08:01:51;1.40;99.90
62339;DHT22;48368;53.406;6.214;2023-01-28T08:04:18;1.30;99.90
62339;DHT22;48368;53.406;6.214;2023-01-28T08:06:44;1.40;99.90
62339;DHT22;48368;53.406;6.214;2023-01-28T08:09:09;1.30;99.90
62339;DHT22;48368;53.406;6.214;2023-01-28T08:11:38;1.40;99.90
62339;DHT22;48368;53.406;6.214;2023-01-28T08:14:08;1.50;99.90
62339;DHT22;48368;53.406;6.214;2023-01-28T08:16:34;1.40;99.90
62339;DHT22;48368;53.406;6.214;2023-01-28T08:18:59;1.50;99.90
62339;DHT22;48368;53.406;6.214;2023-01-28T08:21:25;1.50;99.90
62339;DHT22;48368;53.406;6.214;2023-01-28T08:23:51;1.60;99.90
62339;DHT22;48368;53.406;6.214;2023-01-28T08:26:16;1.60;99.90
62339;DHT22;48368;53.406;6.214;2023-01-28T08:28:42;1.60;99.90
62339;DHT22;48368;53.406;6.214;2023-01-28T08:31:10;1.70;99.90
62339;DHT22;48368;53.406;6.214;2023-01-28T08:33:36;1.80;99.90
62339;DHT22;48368;53.406;6.214;2023-01-28T08:36:05;1.80;99.90
62339;DHT22;48368;53.406;6.214;2023-01-28T08:38:31;1.90;99.90
62339;DHT22;48368;53.406;6.214;2023-01-28T08:40:57;1.80;99.90
62339;DHT22;48368;53.406;6.214;2023-01-28T08:43:26;1.80;99.90
62339;DHT22;48368;53.406;6.214;2023-01-28T08:45:52;1.90;99.90
62339;DHT22;48368;53.406;6.214;2023-01-28T08:48:18;1.80;99.90
62339;DHT22;48368;53.406;6.214;2023-01-28T08:50:44;1.90;99.90
62339;DHT22;48368;53.406;6.214;2023-01-28T08:53:15;2.00;99.90
62339;DHT22;48368;53.406;6.214;2023-01-28T08:55:41;2.00;99.90
62339;DHT22;48368;53.406;6.214;2023-01-28T08:58:10;2.00;99.90
62339;DHT22;48368;53.406;6.214;2023-01-28T09:00:37;2.10;99.90
62339;DHT22;48368;53.406;6.214;2023-01-28T09:03:03;2.00;99.90
62339;DHT22;48368;53.406;6.214;2023-01-28T09:05:33;2.10;99.90
62339;DHT22;48368;53.406;6.214;2023-01-28T09:08:08;2.20;99.90
62339;DHT22;48368;53.406;6.214;2023-01-28T09:10:34;2.40;99.90
62339;DHT22;48368;53.406;6.214;2023-01-28T09:13:13;2.60;99.90
62339;DHT22;48368;53.406;6.214;2023-01-28T09:15:39;2.70;99.90
62339;DHT22;48368;53.406;6.214;2023-01-28T09:18:05;2.90;99.90
62339;DHT22;48368;53.406;6.214;2023-01-28T09:20:31;2.90;99.90
62339;DHT22;48368;53.406;6.214;2023-01-28T09:23:00;3.00;99.90
62339;DHT22;48368;53.406;6.214;2023-01-28T09:25:26;3.00;99.90
62339;DHT22;48368;53.406;6.214;2023-01-28T09:27:52;2.90;99.90
62339;DHT22;48368;53.406;6.214;2023-01-28T09:30:17;2.90;99.90
62339;DHT22;48368;53.406;6.214;2023-01-28T09:32:43;2.90;99.90
62339;DHT22;48368;53.406;6.214;2023-01-28T09:35:09;2.90;99.90
62339;DHT22;48368;53.406;6.214;2023-01-28T09:37:35;2.90;99.90
62339;DHT22;48368;53.406;6.214;2023-01-28T09:40:01;2.90;99.90
62339;DHT22;48368;53.406;6.214;2023-01-28T09:45:29;3.00;99.90
62339;DHT22;48368;53.406;6.214;2023-01-28T09:47:59;3.00;99.90
62339;DHT22;48368;53.406;6.214;2023-01-28T09:50:35;3.10;99.90
62339;DHT22;48368;53.406;6.214;2023-01-28T09:55:54;3.10;99.90
62339;DHT22;48368;53.406;6.214;2023-01-28T09:58:21;3.20;99.90
62339;DHT22;48368;53.406;6.214;2023-01-28T10:00:52;3.30;99.90
62339;DHT22;48368;53.406;6.214;2023-01-28T10:06:12;3.30;99.90
62339;DHT22;48368;53.406;6.214;2023-01-28T10:14:12;3.30;99.90
62339;DHT22;48368;53.406;6.214;2023-01-28T10:16:45;3.20;99.90
62339;DHT22;48368;53.406;6.214;2023-01-28T10:21:51;3.40;99.90
62339;DHT22;48368;53.406;6.214;2023-01-28T10:24:33;3.40;99.90
62339;DHT22;48368;53.406;6.214;2023-01-28T10:27:20;3.50;99.90
62339;DHT22;48368;53.406;6.214;2023-01-28T10:29:47;3.50;99.90
62339;DHT22;48368;53.406;6.214;2023-01-28T10:32:36;3.50;99.90
62339;DHT22;48368;53.406;6.214;2023-01-28T10:35:03;3.50;99.90
62339;DHT22;48368;53.406;6.214;2023-01-28T10:37:36;3.50;99.90
62339;DHT22;48368;53.406;6.214;2023-01-28T10:40:02;3.50;99.90
62339;DHT22;48368;53.406;6.214;2023-01-28T10:42:31;3.60;99.90
62339;DHT22;48368;53.406;6.214;2023-01-28T10:48:01;3.80;99.90
62339;DHT22;48368;53.406;6.214;2023-01-28T10:50:29;3.70;99.90
62339;DHT22;48368;53.406;6.214;2023-01-28T10:52:59;3.80;99.90
62339;DHT22;48368;53.406;6.214;2023-01-28T10:55:30;3.90;99.90
62339;DHT22;48368;53.406;6.214;2023-01-28T10:57:59;3.90;99.90
62339;DHT22;48368;53.406;6.214;2023-01-28T11:00:45;3.90;99.90
62339;DHT22;48368;53.406;6.214;2023-01-28T11:03:19;4.00;99.90
62339;DHT22;48368;53.406;6.214;2023-01-28T11:05:50;4.10;99.90
62339;DHT22;48368;53.406;6.214;2023-01-28T11:08:18;4.10;99.90
62339;DHT22;48368;53.406;6.214;2023-01-28T11:10:44;4.20;99.90
62339;DHT22;48368;53.406;6.214;2023-01-28T11:13:20;4.20;99.90
62339;DHT22;48368;53.406;6.214;2023-01-28T11:18:17;4.30;99.90
62339;DHT22;48368;53.406;6.214;2023-01-28T11:20:50;4.30;99.90
62339;DHT22;48368;53.406;6.214;2023-01-28T11:23:31;4.30;99.90
62339;DHT22;48368;53.406;6.214;2023-01-28T11:26:05;4.40;99.90
62339;DHT22;48368;53.406;6.214;2023-01-28T11:28:31;4.50;99.90
62339;DHT22;48368;53.406;6.214;2023-01-28T11:31:02;4.60;99.90
62339;DHT22;48368;53.406;6.214;2023-01-28T11:36:03;4.60;99.90
62339;DHT22;48368;53.406;6.214;2023-01-28T11:38:29;4.60;99.90
62339;DHT22;48368;53.406;6.214;2023-01-28T11:40:57;4.60;99.90
62339;DHT22;48368;53.406;6.214;2023-01-28T11:43:25;4.70;99.90
62339;DHT22;48368;53.406;6.214;2023-01-28T11:51:31;4.60;99.90
62339;DHT22;48368;53.406;6.214;2023-01-28T11:54:26;4.50;99.90
62339;DHT22;48368;53.406;6.214;2023-01-28T11:57:05;4.50;99.90
62339;DHT22;48368;53.406;6.214;2023-01-28T11:59:49;4.60;99.90
62339;DHT22;48368;53.406;6.214;2023-01-28T12:08:21;5.10;99.90
62339;DHT22;48368;53.406;6.214;2023-01-28T12:22:01;5.40;99.90
62339;DHT22;48368;53.406;6.214;2023-01-28T12:30:39;5.70;99.90
62339;DHT22;48368;53.406;6.214;2023-01-28T12:41:35;5.90;99.90
62339;DHT22;48368;53.406;6.214;2023-01-28T12:44:05;5.90;99.90
62339;DHT22;48368;53.406;6.214;2023-01-28T12:46:44;5.80;99.90
62339;DHT22;48368;53.406;6.214;2023-01-28T12:52:58;5.80;99.90
62339;DHT22;48368;53.406;6.214;2023-01-28T13:00:41;6.00;99.90
62339;DHT22;48368;53.406;6.214;2023-01-28T13:03:33;6.00;99.90
62339;DHT22;48368;53.406;6.214;2023-01-28T13:06:45;6.10;99.90
62339;DHT22;48368;53.406;6.214;2023-01-28T13:08:57;6.10;99.90
62339;DHT22;48368;53.406;6.214;2023-01-28T13:11:32;6.10;99.90
62339;DHT22;48368;53.406;6.214;2023-01-28T13:13:58;6.10;99.90
62339;DHT22;48368;53.406;6.214;2023-01-28T13:16:24;6.10;99.90
62339;DHT22;48368;53.406;6.214;2023-01-28T13:18:50;6.10;99.90
62339;DHT22;48368;53.406;6.214;2023-01-28T13:24:02;6.00;99.90
62339;DHT22;48368;53.406;6.214;2023-01-28T13:26:40;6.00;99.90
62339;DHT22;48368;53.406;6.214;2023-01-28T13:29:29;6.10;99.90
62339;DHT22;48368;53.406;6.214;2023-01-28T13:31:57;6.10;99.90
62339;DHT22;48368;53.406;6.214;2023-01-28T13:34:37;6.10;99.90
62339;DHT22;48368;53.406;6.214;2023-01-28T13:40:23;6.20;99.90
62339;DHT22;48368;53.406;6.214;2023-01-28T13:43:05;6.10;99.90
62339;DHT22;48368;53.406;6.214;2023-01-28T13:45:31;6.10;99.90
62339;DHT22;48368;53.406;6.214;2023-01-28T13:48:05;6.10;99.90
62339;DHT22;48368;53.406;6.214;2023-01-28T13:50:42;6.00;99.90
62339;DHT22;48368;53.406;6.214;2023-01-28T13:53:39;6.10;99.90
62339;DHT22;48368;53.406;6.214;2023-01-28T13:56:21;6.10;99.90
62339;DHT22;48368;53.406;6.214;2023-01-28T14:07:43;5.90;99.90
62339;DHT22;48368;53.406;6.214;2023-01-28T14:20:47;5.90;99.90
62339;DHT22;48368;53.406;6.214;2023-01-28T14:23:16;5.90;99.90
62339;DHT22;48368;53.406;6.214;2023-01-28T14:26:05;5.80;99.90
62339;DHT22;48368;53.406;6.214;2023-01-28T14:28:38;5.80;99.90
62339;DHT22;48368;53.406;6.214;2023-01-28T14:31:15;5.80;99.90
62339;DHT22;48368;53.406;6.214;2023-01-28T14:33:42;5.80;99.90
62339;DHT22;48368;53.406;6.214;2023-01-28T14:36:11;5.70;99.90
62339;DHT22;48368;53.406;6.214;2023-01-28T14:38:42;5.70;99.90
62339;DHT22;48368;53.406;6.214;2023-01-28T14:41:08;5.70;99.90
62339;DHT22;48368;53.406;6.214;2023-01-28T14:43:36;5.70;99.90
62339;DHT22;48368;53.406;6.214;2023-01-28T14:59:47;5.70;99.90
62339;DHT22;48368;53.406;6.214;2023-01-28T15:02:20;5.70;99.90
62339;DHT22;48368;53.406;6.214;2023-01-28T15:04:46;5.60;99.90
62339;DHT22;48368;53.406;6.214;2023-01-28T15:07:23;5.60;99.90
62339;DHT22;48368;53.406;6.214;2023-01-28T15:10:04;5.50;99.90
62339;DHT22;48368;53.406;6.214;2023-01-28T15:12:37;5.60;99.90
62339;DHT22;48368;53.406;6.214;2023-01-28T15:15:13;5.60;99.90
62339;DHT22;48368;53.406;6.214;2023-01-28T15:17:42;5.50;99.90
62339;DHT22;48368;53.406;6.214;2023-01-28T15:20:08;5.50;99.90
62339;DHT22;48368;53.406;6.214;2023-01-28T15:22:41;5.50;99.90
62339;DHT22;48368;53.406;6.214;2023-01-28T15:25:15;5.50;99.90
62339;DHT22;48368;53.406;6.214;2023-01-28T15:27:48;5.50;99.90
62339;DHT22;48368;53.406;6.214;2023-01-28T15:30:23;5.40;99.90
62339;DHT22;48368;53.406;6.214;2023-01-28T15:33:04;5.40;99.90
62339;DHT22;48368;53.406;6.214;2023-01-28T15:35:30;5.40;99.90
62339;DHT22;48368;53.406;6.214;2023-01-28T15:37:57;5.40;99.90
62339;DHT22;48368;53.406;6.214;2023-01-28T15:40:23;5.40;99.90
62339;DHT22;48368;53.406;6.214;2023-01-28T15:42:52;5.40;99.90
62339;DHT22;48368;53.406;6.214;2023-01-28T15:45:22;5.40;99.90
62339;DHT22;48368;53.406;6.214;2023-01-28T15:47:52;5.30;99.90
62339;DHT22;48368;53.406;6.214;2023-01-28T15:50:23;5.30;99.90
62339;DHT22;48368;53.406;6.214;2023-01-28T15:52:51;5.30;99.90
62339;DHT22;48368;53.406;6.214;2023-01-28T15:58:17;5.20;99.90
62339;DHT22;48368;53.406;6.214;2023-01-28T16:00:44;5.20;99.90
62339;DHT22;48368;53.406;6.214;2023-01-28T16:03:18;5.20;99.90
62339;DHT22;48368;53.406;6.214;2023-01-28T16:05:56;5.20;99.90
62339;DHT22;48368;53.406;6.214;2023-01-28T16:11:08;5.10;99.90
62339;DHT22;48368;53.406;6.214;2023-01-28T16:13:35;5.10;99.90
62339;DHT22;48368;53.406;6.214;2023-01-28T16:16:05;5.10;99.90
62339;DHT22;48368;53.406;6.214;2023-01-28T16:18:58;5.00;99.90
62339;DHT22;48368;53.406;6.214;2023-01-28T16:21:27;5.00;99.90
62339;DHT22;48368;53.406;6.214;2023-01-28T16:24:05;5.00;99.90
62339;DHT22;48368;53.406;6.214;2023-01-28T16:26:34;5.00;99.90
62339;DHT22;48368;53.406;6.214;2023-01-28T16:29:12;5.00;99.90
62339;DHT22;48368;53.406;6.214;2023-01-28T16:31:38;5.00;99.90
62339;DHT22;48368;53.406;6.214;2023-01-28T16:34:04;5.00;99.90
62339;DHT22;48368;53.406;6.214;2023-01-28T16:36:30;4.90;99.90
62339;DHT22;48368;53.406;6.214;2023-01-28T16:38:55;4.90;99.90
62339;DHT22;48368;53.406;6.214;2023-01-28T16:41:24;4.90;99.90
62339;DHT22;48368;53.406;6.214;2023-01-28T16:43:51;4.90;99.90
62339;DHT22;48368;53.406;6.214;2023-01-28T16:46:17;4.90;99.90
62339;DHT22;48368;53.406;6.214;2023-01-28T16:48:42;4.90;99.90
62339;DHT22;48368;53.406;6.214;2023-01-28T16:51:15;4.90;99.90
62339;DHT22;48368;53.406;6.214;2023-01-28T16:53:46;4.90;99.90
62339;DHT22;48368;53.406;6.214;2023-01-28T16:56:17;4.80;99.90
62339;DHT22;48368;53.406;6.214;2023-01-28T16:58:44;4.80;99.90
62339;DHT22;48368;53.406;6.214;2023-01-28T17:01:12;4.80;99.90
62339;DHT22;48368;53.406;6.214;2023-01-28T17:03:38;4.80;99.90
62339;DHT22;48368;53.406;6.214;2023-01-28T17:06:05;4.80;99.90
62339;DHT22;48368;53.406;6.214;2023-01-28T17:08:31;4.80;99.90
62339;DHT22;48368;53.406;6.214;2023-01-28T17:10:57;4.70;99.90
62339;DHT22;48368;53.406;6.214;2023-01-28T17:13:26;4.80;99.90
62339;DHT22;48368;53.406;6.214;2023-01-28T17:15:52;4.80;99.90
62339;DHT22;48368;53.406;6.214;2023-01-28T17:18:17;4.70;99.90
62339;DHT22;48368;53.406;6.214;2023-01-28T17:20:43;4.70;99.90
62339;DHT22;48368;53.406;6.214;2023-01-28T17:23:15;4.70;99.90
62339;DHT22;48368;53.406;6.214;2023-01-28T17:25:41;4.70;99.90
62339;DHT22;48368;53.406;6.214;2023-01-28T17:28:08;4.70;99.90
62339;DHT22;48368;53.406;6.214;2023-01-28T17:30:37;4.70;99.90
62339;DHT22;48368;53.406;6.214;2023-01-28T17:33:03;4.70;99.90
62339;DHT22;48368;53.406;6.214;2023-01-28T17:35:30;4.70;99.90
62339;DHT22;48368;53.406;6.214;2023-01-28T17:37:56;4.60;99.90
62339;DHT22;48368;53.406;6.214;2023-01-28T17:40:22;4.60;99.90
62339;DHT22;48368;53.406;6.214;2023-01-28T17:42:50;4.60;99.90
62339;DHT22;48368;53.406;6.214;2023-01-28T17:45:19;4.60;99.90
62339;DHT22;48368;53.406;6.214;2023-01-28T17:47:44;4.70;99.90
62339;DHT22;48368;53.406;6.214;2023-01-28T17:50:10;4.70;99.90
62339;DHT22;48368;53.406;6.214;2023-01-28T17:52:36;4.70;99.90
62339;DHT22;48368;53.406;6.214;2023-01-28T17:55:02;4.60;99.90
62339;DHT22;48368;53.406;6.214;2023-01-28T17:57:28;4.60;99.90
62339;DHT22;48368;53.406;6.214;2023-01-28T17:59:56;4.60;99.90
62339;DHT22;48368;53.406;6.214;2023-01-28T18:02:22;4.60;99.90
62339;DHT22;48368;53.406;6.214;2023-01-28T18:04:47;4.60;99.90
62339;DHT22;48368;53.406;6.214;2023-01-28T18:07:13;4.50;99.90
62339;DHT22;48368;53.406;6.214;2023-01-28T18:09:41;4.50;99.90
62339;DHT22;48368;53.406;6.214;2023-01-28T18:12:09;4.50;99.90
62339;DHT22;48368;53.406;6.214;2023-01-28T18:14:36;4.60;99.90
62339;DHT22;48368;53.406;6.214;2023-01-28T18:17:01;4.50;99.90
62339;DHT22;48368;53.406;6.214;2023-01-28T18:19:27;4.50;99.90
62339;DHT22;48368;53.406;6.214;2023-01-28T18:21:53;4.50;99.90
62339;DHT22;48368;53.406;6.214;2023-01-28T18:24:24;4.50;99.90
62339;DHT22;48368;53.406;6.214;2023-01-28T18:26:54;4.50;99.90
62339;DHT22;48368;53.406;6.214;2023-01-28T18:29:23;4.60;99.90